Time;durP1;ratioP1;P1;durP2;ratioP2;P2;SDS_P1;SDS_P2;PMS_P1;PMS_P2;Temp;Humidity;BMP_temperature;BMP_pressure;BME280_temperature;BME280_humidity;BME280_pressure;Samples;Min_cycle;Max_cycle;Signal;HPM_P1;HPM_P2
2024/04/01 00:01:02;;;;;;;;;;;;;;;13.97;91.93;95623.78;5059900;28;19942;-46
2024/04/01 00:03:28;;;;;;;;;;;;;;;13.82;92.40;95617.56;5064024;28;20020;-46
2024/04/01 00:05:54;;;;;;;;;;;;;;;13.93;92.95;95612.00;5059183;28;20359;-46
2024/04/01 00:08:20;;;;;;;;;;;;;;;13.87;93.84;95599.56;5059557;28;19933;-46
2024/04/01 00:10:46;;;;;;;;;;;;;;;13.81;94.20;95605.47;5056117;28;20262;-46
2024/04/01 00:13:11;;;;;;;;;;;;;;;13.76;95.52;95615.63;5063557;28;19975;-46
2024/04/01 00:15:36;;;;;;;;;;;;;;;13.79;96.65;95608.28;5058922;28;20355;-46
2024/04/01 00:18:01;;;;;;;;;;;;;;;13.71;96.86;95607.44;5061848;28;19930;-46
2024/04/01 00:20:27;;;;;;;;;;;;;;;13.83;97.23;95608.75;5061416;28;19933;-43
2024/04/01 00:22:52;;;;;;;;;;;;;;;13.77;97.65;95627.72;5059732;28;20144;-43
2024/04/01 00:25:17;;;;;;;;;;;;;;;13.71;98.55;95620.50;5063013;28;19931;-43
2024/04/01 00:27:42;;;;;;;;;;;;;;;13.66;99.61;95617.56;5061559;28;19977;-46
2024/04/01 00:30:08;;;;;;;;;;;;;;;13.75;99.06;95601.72;5055258;28;20094;-43
2024/04/01 00:32:34;;;;;;;;;;;;;;;13.65;99.65;95597.63;5054882;28;20042;-46
2024/04/01 00:34:59;;;;;;;;;;;;;;;13.54;100.00;95604.00;5059710;28;20379;-46
2024/04/01 00:37:24;;;;;;;;;;;;;;;13.57;100.00;95613.31;5060521;28;19930;-44
2024/04/01 00:39:49;;;;;;;;;;;;;;;13.51;100.00;95598.28;5056819;28;19930;-44
2024/04/01 00:42:14;;;;;;;;;;;;;;;13.60;100.00;95582.47;5058049;28;20007;-44
2024/04/01 00:44:40;;;;;;;;;;;;;;;13.47;100.00;95576.91;5059814;28;19917;-45
2024/04/01 00:47:05;;;;;;;;;;;;;;;13.52;100.00;95563.34;5057937;28;19925;-44
2024/04/01 00:49:31;;;;;;;;;;;;;;;13.36;100.00;95558.94;5060878;28;19921;-45
2024/04/01 00:51:56;;;;;;;;;;;;;;;13.45;100.00;95544.06;5066764;28;19934;-44
2024/04/01 00:54:22;;;;;;;;;;;;;;;13.37;100.00;95533.63;5057816;28;19937;-44
2024/04/01 00:56:47;;;;;;;;;;;;;;;13.43;100.00;95532.97;5062787;28;19919;-44
2024/04/01 00:59:16;;;;;;;;;;;;;;;13.41;100.00;95514.84;5060997;28;20271;-44
2024/04/01 01:01:42;;;;;;;;;;;;;;;13.35;100.00;95504.22;5062941;28;20017;-44
2024/04/01 01:04:08;;;;;;;;;;;;;;;13.24;100.00;95494.13;5058457;28;20085;-44
2024/04/01 01:06:34;;;;;;;;;;;;;;;13.29;100.00;95489.22;5060688;28;20383;-44
2024/04/01 01:08:59;;;;;;;;;;;;;;;13.16;100.00;95489.69;5066911;28;19956;-44
2024/04/01 01:11:24;;;;;;;;;;;;;;;13.25;100.00;95491.31;5057495;28;19916;-45
2024/04/01 01:13:50;;;;;;;;;;;;;;;13.28;100.00;95471.91;5061776;28;19913;-44
2024/04/01 01:16:15;;;;;;;;;;;;;;;13.19;100.00;95449.38;5062555;28;20247;-44
2024/04/01 01:18:41;;;;;;;;;;;;;;;13.04;100.00;95448.41;5058260;28;19936;-44
2024/04/01 01:21:08;;;;;;;;;;;;;;;13.06;100.00;95426.41;5069267;28;20271;-44
2024/04/01 01:23:33;;;;;;;;;;;;;;;13.15;100.00;95435.00;5066723;28;19926;-44
2024/04/01 01:25:58;;;;;;;;;;;;;;;13.10;100.00;95438.13;5062755;28;19994;-45
2024/04/01 01:28:24;;;;;;;;;;;;;;;13.02;100.00;95439.91;5060948;28;19946;-44
2024/04/01 01:30:49;;;;;;;;;;;;;;;12.98;100.00;95443.84;5061397;28;20038;-43
2024/04/01 01:33:14;;;;;;;;;;;;;;;12.93;100.00;95438.25;5057909;28;20261;-44
2024/04/01 01:35:40;;;;;;;;;;;;;;;13.03;100.00;95446.78;5063818;28;19978;-44
2024/04/01 01:38:05;;;;;;;;;;;;;;;13.08;100.00;95449.72;5062122;28;19952;-44
2024/04/01 01:40:31;;;;;;;;;;;;;;;13.07;100.00;95442.84;5061958;28;20236;-44
2024/04/01 01:42:56;;;;;;;;;;;;;;;13.00;100.00;95440.09;5061782;28;19951;-44
2024/04/01 01:45:21;;;;;;;;;;;;;;;12.87;100.00;95446.75;5061055;28;19920;-44
2024/04/01 01:47:46;;;;;;;;;;;;;;;12.89;100.00;95452.63;5061923;28;19913;-44
2024/04/01 01:50:12;;;;;;;;;;;;;;;12.75;100.00;95458.47;5056732;28;20429;-43
2024/04/01 01:52:37;;;;;;;;;;;;;;;12.72;100.00;95432.72;5056958;28;19978;-45
2024/04/01 01:55:03;;;;;;;;;;;;;;;12.71;100.00;95416.22;5059189;28;19938;-43
2024/04/01 01:57:28;;;;;;;;;;;;;;;12.78;100.00;95413.81;5062302;28;19976;-44
2024/04/01 01:59:54;;;;;;;;;;;;;;;12.64;100.00;95407.41;5061592;28;19936;-43
2024/04/01 02:02:19;;;;;;;;;;;;;;;12.53;100.00;95423.41;5059834;28;19999;-44
2024/04/01 02:04:44;;;;;;;;;;;;;;;12.57;100.00;95442.16;5058135;28;19937;-44
2024/04/01 02:07:10;;;;;;;;;;;;;;;12.61;100.00;95456.50;5058568;28;19937;-44
2024/04/01 02:09:35;;;;;;;;;;;;;;;12.55;100.00;95446.69;5057825;28;19956;-44
2024/04/01 02:12:01;;;;;;;;;;;;;;;12.36;100.00;95441.81;5056625;28;20367;-44
2024/04/01 02:14:27;;;;;;;;;;;;;;;12.37;100.00;95446.03;5062044;28;19912;-45
2024/04/01 02:16:52;;;;;;;;;;;;;;;12.21;100.00;95428.56;5058824;28;20068;-43
2024/04/01 02:19:18;;;;;;;;;;;;;;;12.28;100.00;95408.69;5056527;28;20001;-45
2024/04/01 02:21:46;;;;;;;;;;;;;;;12.31;100.00;95376.25;5057186;28;19934;-44
2024/04/01 02:24:17;;;;;;;;;;;;;;;12.30;100.00;95359.78;5056259;28;19980;-46
2024/04/01 02:26:42;;;;;;;;;;;;;;;12.34;100.00;95340.25;5062988;28;19941;-44
2024/04/01 02:29:08;;;;;;;;;;;;;;;12.27;100.00;95343.66;5058761;28;19947;-43
2024/04/01 02:31:33;;;;;;;;;;;;;;;12.22;100.00;95348.50;5056114;28;19939;-45
2024/04/01 02:34:00;;;;;;;;;;;;;;;12.46;100.00;95383.28;5064115;28;19932;-43
2024/04/01 02:36:25;;;;;;;;;;;;;;;11.99;100.00;95397.03;5058914;28;20557;-43
2024/04/01 02:38:50;;;;;;;;;;;;;;;12.00;100.00;95414.31;5063212;28;19953;-44
2024/04/01 02:41:16;;;;;;;;;;;;;;;12.02;100.00;95402.75;5055921;28;19913;-44
2024/04/01 02:43:42;;;;;;;;;;;;;;;11.93;100.00;95385.47;5061915;28;20209;-44
2024/04/01 02:46:08;;;;;;;;;;;;;;;11.94;100.00;95388.88;5056125;28;19935;-44
2024/04/01 02:48:33;;;;;;;;;;;;;;;11.86;100.00;95384.47;5057756;28;20395;-43
2024/04/01 02:50:58;;;;;;;;;;;;;;;11.87;100.00;95372.22;5062086;28;19941;-44
2024/04/01 02:53:23;;;;;;;;;;;;;;;11.70;100.00;95367.97;5059489;28;19917;-44
2024/04/01 02:55:48;;;;;;;;;;;;;;;11.86;100.00;95365.41;5058855;28;19926;-44
2024/04/01 02:58:14;;;;;;;;;;;;;;;11.61;100.00;95372.31;5056659;28;20024;-43
2024/04/01 03:00:39;;;;;;;;;;;;;;;11.73;100.00;95354.59;5061990;28;20016;-44
2024/04/01 03:03:04;;;;;;;;;;;;;;;11.82;100.00;95364.06;5062000;28;19992;-43
2024/04/01 03:05:30;;;;;;;;;;;;;;;11.86;100.00;95371.44;5056678;28;19937;-43
2024/04/01 03:07:55;;;;;;;;;;;;;;;11.56;100.00;95361.50;5061834;28;19942;-43
2024/04/01 03:10:21;;;;;;;;;;;;;;;11.63;100.00;95348.72;5060192;28;20008;-43
2024/04/01 03:12:47;;;;;;;;;;;;;;;11.68;100.00;95342.06;5057800;28;19972;-44
2024/04/01 03:15:18;;;;;;;;;;;;;;;11.72;100.00;95329.53;5061733;28;19954;-44
2024/04/01 03:17:44;;;;;;;;;;;;;;;11.70;100.00;95323.69;5061790;28;19931;-44
2024/04/01 03:20:11;;;;;;;;;;;;;;;11.76;100.00;95323.03;5058483;28;19989;-44
2024/04/01 03:22:36;;;;;;;;;;;;;;;11.80;100.00;95324.34;5057033;28;19927;-44
2024/04/01 03:25:02;;;;;;;;;;;;;;;11.91;100.00;95332.66;5058272;28;20238;-43
2024/04/01 03:27:27;;;;;;;;;;;;;;;11.95;100.00;95348.78;5063219;28;19960;-44
2024/04/01 03:29:52;;;;;;;;;;;;;;;11.74;100.00;95364.88;5058335;28;20029;-44
2024/04/01 03:32:17;;;;;;;;;;;;;;;11.68;100.00;95372.50;5055889;28;19967;-44
2024/04/01 03:34:49;;;;;;;;;;;;;;;11.70;100.00;95367.97;5059382;28;19924;-44
2024/04/01 03:37:14;;;;;;;;;;;;;;;11.74;100.00;95387.50;5056603;28;20386;-44
2024/04/01 03:39:42;;;;;;;;;;;;;;;11.54;100.00;95380.88;5055174;28;19928;-44
2024/04/01 03:42:08;;;;;;;;;;;;;;;11.43;100.00;95384.56;5056908;28;20381;-43
2024/04/01 03:44:33;;;;;;;;;;;;;;;11.54;100.00;95391.28;5056842;28;19988;-44
2024/04/01 03:46:58;;;;;;;;;;;;;;;11.54;100.00;95388.69;5055359;28;19932;-44
2024/04/01 03:49:23;;;;;;;;;;;;;;;11.58;100.00;95371.81;5054422;28;20291;-43
2024/04/01 03:51:48;;;;;;;;;;;;;;;11.56;100.00;95366.72;5054885;28;19956;-43
2024/04/01 03:54:14;;;;;;;;;;;;;;;11.53;100.00;95368.81;5054386;28;19924;-44
2024/04/01 03:56:40;;;;;;;;;;;;;;;11.54;100.00;95362.63;5055126;28;19921;-43
2024/04/01 03:59:05;;;;;;;;;;;;;;;11.53;100.00;95369.66;5056335;28;19967;-44
2024/04/01 04:01:31;;;;;;;;;;;;;;;11.48;100.00;95365.88;5059192;28;19929;-43
2024/04/01 04:03:56;;;;;;;;;;;;;;;11.55;100.00;95353.84;5061796;28;19950;-44
2024/04/01 04:06:21;;;;;;;;;;;;;;;11.37;100.00;95359.16;5059066;28;19924;-44
2024/04/01 04:08:47;;;;;;;;;;;;;;;11.42;100.00;95376.91;5058279;28;19947;-44
2024/04/01 04:11:13;;;;;;;;;;;;;;;11.37;100.00;95368.75;5059198;28;19954;-44
2024/04/01 04:13:38;;;;;;;;;;;;;;;11.29;100.00;95353.06;5054766;28;20369;-45
2024/04/01 04:16:03;;;;;;;;;;;;;;;11.25;100.00;95326.53;5054082;28;19930;-44
2024/04/01 04:18:28;;;;;;;;;;;;;;;11.42;100.00;95324.81;5055294;28;19921;-44
2024/04/01 04:20:56;;;;;;;;;;;;;;;11.52;100.00;95343.75;5055316;28;20026;-44
2024/04/01 04:23:23;;;;;;;;;;;;;;;11.37;100.00;95342.72;5056601;28;20304;-44
2024/04/01 04:25:48;;;;;;;;;;;;;;;11.42;100.00;95332.63;5055941;28;19946;-45
2024/04/01 04:28:13;;;;;;;;;;;;;;;11.48;100.00;95325.03;5058192;28;19936;-46
2024/04/01 04:30:38;;;;;;;;;;;;;;;11.46;100.00;95331.38;5054838;28;20013;-44
2024/04/01 04:33:04;;;;;;;;;;;;;;;11.38;100.00;95334.75;5054122;28;19934;-45
2024/04/01 04:35:29;;;;;;;;;;;;;;;11.47;100.00;95341.63;5053752;28;19966;-46
2024/04/01 04:37:54;;;;;;;;;;;;;;;11.69;100.00;95327.22;5057383;28;20254;-44
2024/04/01 04:40:19;;;;;;;;;;;;;;;11.61;100.00;95342.84;5055991;28;20371;-44
2024/04/01 04:42:45;;;;;;;;;;;;;;;11.74;100.00;95357.06;5056141;28;19926;-44
2024/04/01 04:45:10;;;;;;;;;;;;;;;11.80;100.00;95350.38;5054816;28;19924;-44
2024/04/01 04:47:36;;;;;;;;;;;;;;;11.78;100.00;95350.53;5057406;28;20264;-43
2024/04/01 04:50:02;;;;;;;;;;;;;;;11.88;100.00;95373.88;5062473;28;19981;-44
2024/04/01 04:52:27;;;;;;;;;;;;;;;11.73;100.00;95354.59;5055932;28;19931;-43
2024/04/01 04:54:52;;;;;;;;;;;;;;;11.77;100.00;95348.91;5054778;28;19954;-44
2024/04/01 04:57:18;;;;;;;;;;;;;;;11.77;100.00;95355.94;5053700;28;20324;-44
2024/04/01 04:59:43;;;;;;;;;;;;;;;11.63;100.00;95366.97;5061585;28;20262;-46
2024/04/01 05:02:08;;;;;;;;;;;;;;;11.56;100.00;95363.31;5055624;28;19934;-44
2024/04/01 05:04:34;;;;;;;;;;;;;;;11.56;100.00;95379.75;5053451;28;20027;-44
2024/04/01 05:06:59;;;;;;;;;;;;;;;11.59;100.00;95405.53;5056196;28;19943;-44
2024/04/01 05:09:25;;;;;;;;;;;;;;;11.60;100.00;95424.56;5056873;28;19961;-44
2024/04/01 05:11:50;;;;;;;;;;;;;;;11.50;100.00;95411.63;5055504;28;19953;-44
2024/04/01 05:14:15;;;;;;;;;;;;;;;11.53;100.00;95405.28;5057093;28;19923;-45
2024/04/01 05:16:41;;;;;;;;;;;;;;;11.66;100.00;95421.34;5058210;28;19913;-44
2024/04/01 05:19:07;;;;;;;;;;;;;;;11.60;100.00;95437.59;5057146;28;19927;-45
2024/04/01 05:21:32;;;;;;;;;;;;;;;11.60;100.00;95455.81;5057059;28;20021;-44
2024/04/01 05:23:57;;;;;;;;;;;;;;;11.65;100.00;95440.56;5055321;28;19941;-44
2024/04/01 05:26:23;;;;;;;;;;;;;;;11.76;100.00;95454.13;5057786;28;19921;-44
2024/04/01 05:28:48;;;;;;;;;;;;;;;11.77;100.00;95465.38;5062839;28;19953;-45
2024/04/01 05:31:14;;;;;;;;;;;;;;;11.81;100.00;95482.31;5055210;28;19934;-45
2024/04/01 05:33:39;;;;;;;;;;;;;;;11.76;100.00;95484.59;5059013;28;20249;-44
2024/04/01 05:36:05;;;;;;;;;;;;;;;11.87;100.00;95486.91;5059780;28;19990;-45
2024/04/01 05:38:31;;;;;;;;;;;;;;;11.92;100.00;95479.44;5062707;28;20098;-46
2024/04/01 05:40:56;;;;;;;;;;;;;;;11.91;100.00;95483.81;5058651;28;20861;-44
2024/04/01 05:43:21;;;;;;;;;;;;;;;11.85;100.00;95505.28;5071201;28;19974;-44
2024/04/01 05:45:47;;;;;;;;;;;;;;;11.88;100.00;95530.22;5064232;28;19927;-45
2024/04/01 05:48:12;;;;;;;;;;;;;;;11.85;100.00;95530.56;5067318;28;19916;-45
2024/04/01 05:50:37;;;;;;;;;;;;;;;11.91;100.00;95516.91;5064151;28;19944;-44
2024/04/01 05:53:02;;;;;;;;;;;;;;;11.78;100.00;95534.75;5061049;28;19982;-45
2024/04/01 05:55:27;;;;;;;;;;;;;;;11.83;100.00;95559.38;5059932;28;20343;-44
2024/04/01 05:57:53;;;;;;;;;;;;;;;11.82;100.00;95557.75;5062840;28;19970;-45
2024/04/01 06:00:18;;;;;;;;;;;;;;;11.89;100.00;95548.34;5063243;28;19942;-44
2024/04/01 06:02:43;;;;;;;;;;;;;;;11.90;100.00;95576.03;5061566;28;19933;-46
2024/04/01 06:05:09;;;;;;;;;;;;;;;11.76;100.00;95578.41;5057480;28;20024;-45
2024/04/01 06:07:34;;;;;;;;;;;;;;;11.88;100.00;95567.56;5060811;28;19981;-45
2024/04/01 06:10:00;;;;;;;;;;;;;;;11.87;100.00;95571.13;5057625;28;19954;-46
2024/04/01 06:12:26;;;;;;;;;;;;;;;11.89;100.00;95570.94;5062431;28;19946;-45
2024/04/01 06:14:51;;;;;;;;;;;;;;;11.96;100.00;95577.22;5061260;28;19932;-46
2024/04/01 06:17:16;;;;;;;;;;;;;;;11.98;100.00;95564.84;5059281;28;20291;-45
2024/04/01 06:19:41;;;;;;;;;;;;;;;11.87;100.00;95567.69;5056420;28;19954;-45
2024/04/01 06:22:07;;;;;;;;;;;;;;;11.89;100.00;95584.81;5057067;28;20230;-45
2024/04/01 06:24:32;;;;;;;;;;;;;;;11.83;100.00;95600.25;5057639;28;20318;-45
2024/04/01 06:26:57;;;;;;;;;;;;;;;11.78;100.00;95603.31;5056076;28;20010;-45
2024/04/01 06:29:22;;;;;;;;;;;;;;;11.73;100.00;95621.19;5055205;28;20041;-46
2024/04/01 06:31:47;;;;;;;;;;;;;;;11.61;100.00;95626.78;5059516;28;19938;-45
2024/04/01 06:34:13;;;;;;;;;;;;;;;11.62;100.00;95634.47;5056968;28;20422;-46
2024/04/01 06:36:38;;;;;;;;;;;;;;;11.52;100.00;95628.47;5055829;28;20238;-45
2024/04/01 06:39:05;;;;;;;;;;;;;;;11.61;100.00;95626.78;5061205;28;20416;-45
2024/04/01 06:41:30;;;;;;;;;;;;;;;11.66;100.00;95634.97;5055932;28;19938;-46
2024/04/01 06:43:55;;;;;;;;;;;;;;;11.63;100.00;95635.28;5059674;28;19945;-45
2024/04/01 06:46:20;;;;;;;;;;;;;;;11.62;100.00;95639.66;5056552;28;19946;-45
2024/04/01 06:48:46;;;;;;;;;;;;;;;11.58;100.00;95627.09;5058227;28;19949;-46
2024/04/01 06:51:11;;;;;;;;;;;;;;;11.56;100.00;95647.25;5056526;28;19923;-46
2024/04/01 06:53:36;;;;;;;;;;;;;;;11.50;100.00;95650.44;5058353;28;19928;-45
2024/04/01 06:56:01;;;;;;;;;;;;;;;11.57;100.00;95646.28;5056767;28;19920;-45
2024/04/01 06:58:27;;;;;;;;;;;;;;;11.50;100.00;95645.25;5057984;28;20333;-45
2024/04/01 07:00:52;;;;;;;;;;;;;;;11.71;100.00;95664.00;5058747;28;19929;-47
2024/04/01 07:03:17;;;;;;;;;;;;;;;11.60;100.00;95677.25;5055320;28;19979;-45
2024/04/01 07:05:43;;;;;;;;;;;;;;;11.60;100.00;95678.09;5059160;28;20009;-46
2024/04/01 07:08:08;;;;;;;;;;;;;;;11.30;100.00;95682.81;5059844;28;19927;-45
2024/04/01 07:10:33;;;;;;;;;;;;;;;11.55;100.00;95703.72;5057931;28;19936;-46
2024/04/01 07:12:59;;;;;;;;;;;;;;;11.51;100.00;95704.97;5064119;28;19924;-46
2024/04/01 07:15:24;;;;;;;;;;;;;;;11.52;100.00;95705.81;5057630;28;19944;-46
2024/04/01 07:17:50;;;;;;;;;;;;;;;11.63;100.00;95697.81;5060055;28;19984;-45
2024/04/01 07:20:15;;;;;;;;;;;;;;;11.66;100.00;95702.72;5064093;28;19932;-46
2024/04/01 07:22:40;;;;;;;;;;;;;;;11.73;100.00;95683.75;5063059;28;20318;-46
2024/04/01 07:25:06;;;;;;;;;;;;;;;11.65;100.00;95685.44;5063279;28;20035;-46
2024/04/01 07:27:34;;;;;;;;;;;;;;;11.72;100.00;95686.50;5061984;28;19928;-46
2024/04/01 07:30:06;;;;;;;;;;;;;;;11.69;100.00;95698.03;5059891;28;19945;-45
2024/04/01 07:32:32;;;;;;;;;;;;;;;11.69;100.00;95691.97;5063259;28;20031;-46
2024/04/01 07:34:58;;;;;;;;;;;;;;;11.69;100.00;95702.41;5059403;28;19963;-47
2024/04/01 07:37:23;;;;;;;;;;;;;;;11.84;100.00;95698.31;5063399;28;19985;-45
2024/04/01 07:39:49;;;;;;;;;;;;;;;11.89;100.00;95706.47;5060867;28;19934;-45
2024/04/01 07:42:14;;;;;;;;;;;;;;;11.90;100.00;95710.75;5058038;28;19920;-46
2024/04/01 07:44:40;;;;;;;;;;;;;;;11.96;100.00;95725.78;5061479;28;20023;-46
2024/04/01 07:47:06;;;;;;;;;;;;;;;11.89;100.00;95730.78;5063822;28;20275;-46
2024/04/01 07:49:31;;;;;;;;;;;;;;;11.82;100.00;95744.53;5053910;28;20031;-46
2024/04/01 07:51:56;;;;;;;;;;;;;;;11.80;100.00;95762.13;5053756;28;20359;-46
2024/04/01 07:54:23;;;;;;;;;;;;;;;11.83;100.00;95777.47;5051987;28;19934;-45
2024/04/01 07:56:48;;;;;;;;;;;;;;;11.74;100.00;95778.34;5055895;28;20239;-45
2024/04/01 07:59:14;;;;;;;;;;;;;;;11.76;100.00;95777.22;5053356;28;20317;-47
2024/04/01 08:01:39;;;;;;;;;;;;;;;11.70;100.00;95784.84;5056859;28;20412;-46
2024/04/01 08:04:04;;;;;;;;;;;;;;;11.72;100.00;95796.72;5055877;28;20354;-46
2024/04/01 08:06:29;;;;;;;;;;;;;;;11.62;100.00;95806.41;5054531;28;20342;-46
2024/04/01 08:08:54;;;;;;;;;;;;;;;11.78;100.00;95814.38;5056460;28;19946;-46
2024/04/01 08:11:20;;;;;;;;;;;;;;;11.78;100.00;95847.47;5055482;28;19943;-46
2024/04/01 08:13:45;;;;;;;;;;;;;;;11.72;100.00;95851.44;5057040;28;19936;-46
2024/04/01 08:16:10;;;;;;;;;;;;;;;11.79;100.00;95865.56;5053188;28;19974;-46
2024/04/01 08:18:35;;;;;;;;;;;;;;;11.70;100.00;95861.19;5065618;28;20522;-46
2024/04/01 08:21:01;;;;;;;;;;;;;;;11.67;100.00;95871.09;5055503;28;20408;-46
2024/04/01 08:23:26;;;;;;;;;;;;;;;11.59;100.00;95857.97;5057428;28;19940;-47
2024/04/01 08:25:51;;;;;;;;;;;;;;;11.65;100.00;95865.22;5055153;28;19929;-47
2024/04/01 08:28:17;;;;;;;;;;;;;;;11.60;100.00;95859.63;5055226;28;19929;-46
2024/04/01 08:30:43;;;;;;;;;;;;;;;11.71;100.00;95867.25;5054082;28;19916;-46
2024/04/01 08:33:08;;;;;;;;;;;;;;;11.73;100.00;95870.50;5054602;28;20343;-47
2024/04/01 08:35:33;;;;;;;;;;;;;;;11.90;100.00;95882.78;5057483;28;19974;-46
2024/04/01 08:37:58;;;;;;;;;;;;;;;11.86;100.00;95894.44;5056590;28;20084;-47
2024/04/01 08:40:23;;;;;;;;;;;;;;;12.04;100.00;95908.34;5052423;28;19950;-46
2024/04/01 08:42:52;;;;;;;;;;;;;;;12.18;100.00;95907.84;5054899;28;19930;-46
2024/04/01 08:45:18;;;;;;;;;;;;;;;12.21;100.00;95899.72;5052952;28;19932;-46
2024/04/01 08:47:47;;;;;;;;;;;;;;;12.24;100.00;95896.84;5055231;28;20386;-46
2024/04/01 08:50:19;;;;;;;;;;;;;;;12.35;100.00;95904.41;5053056;28;20343;-46
2024/04/01 08:52:48;;;;;;;;;;;;;;;12.53;100.00;95897.44;5055726;28;19946;-46
2024/04/01 08:55:14;;;;;;;;;;;;;;;12.42;100.00;95895.03;5054108;28;20269;-46
2024/04/01 08:57:39;;;;;;;;;;;;;;;12.28;100.00;95890.34;5054650;28;19935;-46
2024/04/01 09:00:08;;;;;;;;;;;;;;;12.59;100.00;95891.59;5052249;28;19940;-46
2024/04/01 09:02:34;;;;;;;;;;;;;;;12.60;100.00;95888.03;5055945;28;20386;-46
2024/04/01 09:04:59;;;;;;;;;;;;;;;12.74;100.00;95880.50;5055016;28;19963;-47
2024/04/01 09:07:25;;;;;;;;;;;;;;;12.70;100.00;95894.00;5055437;28;19916;-47
2024/04/01 09:09:50;;;;;;;;;;;;;;;12.85;100.00;95903.72;5068845;28;19963;-46
2024/04/01 09:12:15;;;;;;;;;;;;;;;12.84;100.00;95915.16;5063915;28;19978;-46
2024/04/01 09:14:40;;;;;;;;;;;;;;;13.00;100.00;95917.09;5058663;28;19960;-46
2024/04/01 09:17:06;;;;;;;;;;;;;;;12.77;100.00;95931.56;5066190;28;19913;-45
2024/04/01 09:19:31;;;;;;;;;;;;;;;12.68;100.00;95942.91;5061721;28;20748;-46
2024/04/01 09:22:01;;;;;;;;;;;;;;;12.65;100.00;95953.66;5057791;28;19989;-46
2024/04/01 09:24:26;;;;;;;;;;;;;;;12.54;100.00;95951.25;5060856;28;19940;-46
2024/04/01 09:26:52;;;;;;;;;;;;;;;12.76;100.00;95956.84;5064886;28;19965;-46
2024/04/01 09:29:17;;;;;;;;;;;;;;;13.01;100.00;95955.28;5057396;28;19921;-47
2024/04/01 09:31:42;;;;;;;;;;;;;;;13.17;100.00;95961.47;5064618;28;19941;-47
2024/04/01 09:34:08;;;;;;;;;;;;;;;13.61;100.00;95967.47;5065723;28;20301;-46
2024/04/01 09:36:33;;;;;;;;;;;;;;;13.48;100.00;95964.44;5057731;28;20114;-45
2024/04/01 09:38:58;;;;;;;;;;;;;;;12.76;99.80;95966.47;5057850;28;19933;-46
2024/04/01 09:41:24;;;;;;;;;;;;;;;13.41;100.00;95974.72;5055485;28;19942;-45
2024/04/01 09:43:55;;;;;;;;;;;;;;;13.47;99.04;95981.09;5058694;28;19925;-48
2024/04/01 09:46:21;;;;;;;;;;;;;;;13.25;97.58;95989.44;5057471;28;20034;-46
2024/04/01 09:48:46;;;;;;;;;;;;;;;13.49;97.84;95992.25;5057469;28;20043;-46
2024/04/01 09:51:13;;;;;;;;;;;;;;;13.80;95.94;95988.19;5057570;28;20317;-46
2024/04/01 09:53:39;;;;;;;;;;;;;;;13.80;94.36;95985.56;5056892;28;19957;-46
2024/04/01 09:56:13;;;;;;;;;;;;;;;14.03;91.11;95989.28;5056442;28;19956;-46
2024/04/01 09:58:53;;;;;;;;;;;;;;;13.85;89.09;95993.78;5057419;28;19928;-46
2024/04/01 10:01:21;;;;;;;;;;;;;;;13.72;89.18;96017.72;5056120;28;19927;-46
2024/04/01 10:04:07;;;;;;;;;;;;;;;13.50;91.03;96006.94;5056188;28;20391;-47
2024/04/01 10:07:04;;;;;;;;;;;;;;;13.40;91.84;96008.81;5056969;28;19933;-46
2024/04/01 10:09:30;;;;;;;;;;;;;;;13.41;91.04;96013.06;5057473;28;20254;-46
2024/04/01 10:12:04;;;;;;;;;;;;;;;13.39;91.83;96008.03;5056131;28;19927;-47
2024/04/01 10:14:38;;;;;;;;;;;;;;;13.47;91.19;96009.84;5055920;28;19931;-46
2024/04/01 10:17:18;;;;;;;;;;;;;;;12.90;92.91;96018.16;5055821;28;20007;-45
2024/04/01 10:20:00;;;;;;;;;;;;;;;12.76;89.48;96029.13;5055822;28;19927;-45
2024/04/01 10:22:36;;;;;;;;;;;;;;;13.18;89.35;96030.22;5058558;28;20011;-45
2024/04/01 10:25:25;;;;;;;;;;;;;;;13.03;91.00;96047.38;5064023;28;19925;-46
2024/04/01 10:28:11;;;;;;;;;;;;;;;12.76;91.49;96048.22;5068730;28;20046;-46
2024/04/01 10:30:42;;;;;;;;;;;;;;;12.83;92.58;96061.50;5058920;28;19947;-47
2024/04/01 10:33:26;;;;;;;;;;;;;;;12.61;90.98;96061.91;5069626;28;19927;-46
2024/04/01 10:35:51;;;;;;;;;;;;;;;12.61;90.79;96067.13;5063858;28;19912;-46
2024/04/01 10:38:22;;;;;;;;;;;;;;;12.50;90.17;96090.81;5065416;28;19948;-45
2024/04/01 10:41:06;;;;;;;;;;;;;;;12.49;91.81;96076.09;5067080;28;19995;-46
2024/04/01 10:43:43;;;;;;;;;;;;;;;12.40;90.33;96082.19;5058824;28;20279;-45
2024/04/01 10:46:08;;;;;;;;;;;;;;;12.43;89.46;96100.19;5062581;28;19926;-46
2024/04/01 10:48:41;;;;;;;;;;;;;;;12.52;86.93;96112.34;5062930;28;20029;-46
2024/04/01 10:51:25;;;;;;;;;;;;;;;12.77;85.75;96109.06;5062294;28;19926;-45
2024/04/01 10:54:03;;;;;;;;;;;;;;;12.22;85.92;96117.81;5063381;28;20247;-45
2024/04/01 10:56:28;;;;;;;;;;;;;;;12.49;87.87;96121.28;5058892;28;19970;-46
2024/04/01 10:59:03;;;;;;;;;;;;;;;12.66;88.23;96120.53;5057793;28;19930;-46
2024/04/01 11:01:28;;;;;;;;;;;;;;;12.68;86.44;96126.44;5062162;28;19940;-45
2024/04/01 11:03:56;;;;;;;;;;;;;;;12.99;85.84;96133.03;5070982;28;20268;-46
2024/04/01 11:06:42;;;;;;;;;;;;;;;12.99;83.75;96132.19;5062516;28;19924;-46
2024/04/01 11:09:29;;;;;;;;;;;;;;;12.89;82.49;96149.69;5067629;28;19948;-45
2024/04/01 11:12:03;;;;;;;;;;;;;;;12.92;83.24;96165.88;5066157;28;20360;-46
2024/04/01 11:14:29;;;;;;;;;;;;;;;12.64;83.35;96151.16;5071002;28;19924;-46
2024/04/01 11:16:58;;;;;;;;;;;;;;;12.85;82.47;96161.38;5062706;28;19916;-45
2024/04/01 11:19:23;;;;;;;;;;;;;;;12.84;83.44;96170.19;5067074;28;19921;-46
2024/04/01 11:21:48;;;;;;;;;;;;;;;13.12;86.17;96174.44;5067718;28;19946;-46
2024/04/01 11:24:35;;;;;;;;;;;;;;;13.19;86.64;96183.34;5068975;28;20478;-46
2024/04/01 11:27:03;;;;;;;;;;;;;;;13.31;86.52;96190.00;5075351;28;20343;-46
2024/04/01 11:29:43;;;;;;;;;;;;;;;12.93;91.31;96177.13;5069501;28;20211;-47
2024/04/01 11:32:15;;;;;;;;;;;;;;;13.21;89.66;96176.19;5063114;28;19954;-46
2024/04/01 11:34:59;;;;;;;;;;;;;;;13.76;88.18;96178.53;5060814;28;19973;-46
2024/04/01 11:37:24;;;;;;;;;;;;;;;13.98;88.00;96179.88;5064254;28;20033;-46
2024/04/01 11:39:53;;;;;;;;;;;;;;;13.47;85.65;96193.63;5063501;28;20144;-46
2024/04/01 11:42:21;;;;;;;;;;;;;;;13.65;86.13;96211.94;5064907;28;20553;-48
2024/04/01 11:44:47;;;;;;;;;;;;;;;13.31;88.35;96221.38;5065767;28;20528;-48
2024/04/01 11:47:13;;;;;;;;;;;;;;;13.22;88.51;96219.63;5064863;28;20050;-46
2024/04/01 11:49:39;;;;;;;;;;;;;;;13.22;87.99;96224.84;5064826;28;20004;-46
2024/04/01 11:52:10;;;;;;;;;;;;;;;13.32;86.82;96241.28;5068895;28;20012;-45
2024/04/01 11:54:36;;;;;;;;;;;;;;;13.29;85.64;96257.28;5062835;28;19913;-45
2024/04/01 11:57:02;;;;;;;;;;;;;;;13.21;85.35;96259.78;5069241;28;20371;-47
2024/04/01 11:59:30;;;;;;;;;;;;;;;13.11;86.24;96274.69;5064832;28;19947;-45
2024/04/01 12:01:55;;;;;;;;;;;;;;;12.95;84.37;96277.91;5068863;28;20403;-46
2024/04/01 12:04:22;;;;;;;;;;;;;;;12.94;82.73;96293.66;5060311;28;19974;-45
2024/04/01 12:06:48;;;;;;;;;;;;;;;12.82;83.10;96289.56;5059740;28;19985;-46
2024/04/01 12:09:13;;;;;;;;;;;;;;;12.77;83.55;96295.22;5062232;28;20400;-45
2024/04/01 12:11:45;;;;;;;;;;;;;;;12.88;83.34;96295.06;5063104;28;19966;-45
2024/04/01 12:14:11;;;;;;;;;;;;;;;13.15;81.39;96296.91;5063954;28;20255;-45
2024/04/01 12:16:36;;;;;;;;;;;;;;;13.22;79.07;96304.03;5063842;28;20052;-45
2024/04/01 12:19:02;;;;;;;;;;;;;;;13.83;77.06;96304.28;5064417;28;20257;-46
2024/04/01 12:21:31;;;;;;;;;;;;;;;14.33;75.21;96302.81;5063224;28;20360;-46
2024/04/01 12:23:56;;;;;;;;;;;;;;;14.75;72.48;96301.19;5063533;28;19933;-46
2024/04/01 12:26:22;;;;;;;;;;;;;;;14.62;70.00;96309.44;5064520;28;20023;-46
2024/04/01 12:28:47;;;;;;;;;;;;;;;14.63;68.42;96305.06;5060386;28;20037;-46
2024/04/01 12:31:18;;;;;;;;;;;;;;;14.24;69.63;96319.44;5059784;28;19958;-46
2024/04/01 12:33:44;;;;;;;;;;;;;;;14.34;71.14;96331.47;5062696;28;19932;-46
2024/04/01 12:36:12;;;;;;;;;;;;;;;13.59;72.90;96324.91;5062028;28;20317;-45
2024/04/01 12:38:41;;;;;;;;;;;;;;;13.89;74.19;96340.31;5064342;28;20077;-45